KDUA

Durant Regional - Eaker Field Airport

Durant, Oklahoma, USA
METAR KDUA 210515Z AUTO 00000KT 10SM CLR 22/18 A3005 RMK AO2
Observed Flight Rules
Aug-21 @ 05:15 UTC (9 hours ago) Visual Flight Rules
Visibility Clouds
10 miles
  • Clear skies
Temperatures Readings
Current 22°C / 72°F
Dewpoint 18°C / 64°F
Humidity 78%
Altimeter 30.05" Hg
Pressure 1018 hPa
Elevation 213
METAR KDUA 210515Z AUTO 00000KT 10SM CLR 22/18 A3005 RMK AO2
Observed Flight Rules
Aug-21 @ 05:15 UTC
(9 hours ago)
VFR
Clouds
  • Clear skies
Temperature Dewpoint
22°C / 72°F 18°C / 64°F
Humidity Altimeter Pressure
78% 30.05" Hg 1018 hPa